Burgtor — V2OR7 — position and weather

sailwx.info

Track history (hours):
 
Tides and Currents Weather Stations Pressure Air Temp Water Temp Dewpoint Dewpoint Depression Visibility Wind Speed Wind Dir Waves Ship Positions

Burgtor

Last reported at 2014-Aug-23 02:08 UTC. Time now 2014-Aug-23 07:31 UTC.
Position N 55°39' W 004°60'.

Length 87 m; draft 4.7 m.

Type: Cargo ship. MMSI: 304665000.

Date/timePositionNaut miles runAvg speedWind from/ knotsBaromVisibWave heightAir tempDewpointWater temp
2014-Aug-23 02:08N 55°39' W 004°60'610.3
2014-Aug-23 01:33N 55°45' W 004°59'1010.2
2014-Aug-23 00:34N 55°55' W 004°56'8 7.6
2014-Aug-22 23:33N 55°57' W 004°42'9 9.2
2014-Aug-22 22:33N 55°54' W 004°26'4 3.7
2014-Aug-22 21:32N 55°52' W 004°21'0 0.0
2014-Aug-22 20:32N 55°52' W 004°21'0 0.0
2014-Aug-22 19:32N 55°52' W 004°21'0 0.0
2014-Aug-22 18:32N 55°52' W 004°21'0 0.0
2014-Aug-22 17:32N 55°52' W 004°21'0 0.0
2014-Aug-22 16:29N 55°52' W 004°21'0 0.0
2014-Aug-22 15:32N 55°52' W 004°21'0 0.0
2014-Aug-22 14:26N 55°52' W 004°21'0 0.0
2014-Aug-22 13:32N 55°52' W 004°21'0 0.0
2014-Aug-22 12:32N 55°52' W 004°21'0 0.0
2014-Aug-22 11:32N 55°52' W 004°21'0 0.0
2014-Aug-22 10:29N 55°52' W 004°21'0 0.0
2014-Aug-22 09:29N 55°52' W 004°21'0 0.0
2014-Aug-22 08:29N 55°52' W 004°21'0 0.0
2014-Aug-22 07:10N 55°52' W 004°21'0 0.0
2014-Aug-22 06:25N 55°52' W 004°21'0 0.0
2014-Aug-22 05:31N 55°52' W 004°21'0 0.0
2014-Aug-22 04:31N 55°52' W 004°21'0 0.0
2014-Aug-22 03:31N 55°52' W 004°21'0 0.0
2014-Aug-22 02:31N 55°52' W 004°21'0 0.0
2014-Aug-22 01:31N 55°52' W 004°21'0 0.0
2014-Aug-22 00:31N 55°52' W 004°21'0 0.0
2014-Aug-21 23:31N 55°52' W 004°21'0 0.0
2014-Aug-21 22:25N 55°52' W 004°21'0 0.0
2014-Aug-21 21:31N 55°52' W 004°21'0 0.0
2014-Aug-21 20:31N 55°52' W 004°21'0 0.0
2014-Aug-21 19:31N 55°52' W 004°21'0 0.0
2014-Aug-21 18:31N 55°52' W 004°21'0 0.0
2014-Aug-21 17:31N 55°52' W 004°21'0 0.0
2014-Aug-21 16:31N 55°52' W 004°21'0 0.0
2014-Aug-21 15:31N 55°52' W 004°21'0 0.0
2014-Aug-21 14:31N 55°52' W 004°21'0 0.0
2014-Aug-21 13:31N 55°52' W 004°21'0 0.0
2014-Aug-21 12:10N 55°52' W 004°21'0 0.0
2014-Aug-21 11:31N 55°52' W 004°21'0 0.0
2014-Aug-21 10:25N 55°52' W 004°21'0 0.0
2014-Aug-21 09:28N 55°52' W 004°21'0 0.0
2014-Aug-21 08:31N 55°52' W 004°21'0 0.0
2014-Aug-21 07:31N 55°52' W 004°21'0 0.0
2014-Aug-21 06:31N 55°52' W 004°21'0 0.0
2014-Aug-21 05:28N 55°52' W 004°21'0 0.0
2014-Aug-21 04:22N 55°52' W 004°21'0 0.0
2014-Aug-21 03:28N 55°52' W 004°21'0 0.0
2014-Aug-21 02:28N 55°52' W 004°21'0 0.0
2014-Aug-21 01:28N 55°52' W 004°21'0 0.0
2014-Aug-21 00:28N 55°52' W 004°21'0 0.0
2014-Aug-20 23:22N 55°52' W 004°21'0 0.0
2014-Aug-20 22:28N 55°52' W 004°21'0 0.0
2014-Aug-20 21:31N 55°52' W 004°21'0 0.0
2014-Aug-20 20:34N 55°52' W 004°21'0 0.0
2014-Aug-20 19:33N 55°52' W 004°21'5 4.9
2014-Aug-20 18:34N 55°55' W 004°28'1111.0
2014-Aug-20 17:34N 55°58' W 004°47'7 7.3
2014-Aug-20 16:34N 55°53' W 004°56'6 5.8
2014-Aug-20 15:33N 55°47' W 004°58'6 5.8
2014-Aug-20 14:30N 55°41' W 004°59'7 7.0
2014-Aug-20 13:30N 55°34' W 005°00'34 6.9
2014-Aug-20 08:33N 55°01' W 005°15'7 7.1
2014-Aug-20 07:33N 54°54' W 005°16'7 6.7
2014-Aug-20 06:34N 54°47' W 005°16'6 5.8
2014-Aug-20 05:34N 54°41' W 005°17'6 5.6
2014-Aug-20 04:34N 54°36' W 005°17'6 5.8
2014-Aug-20 03:34N 54°30' W 005°18'6 6.1
2014-Aug-20 02:34N 54°24' W 005°18'7 6.6
2014-Aug-20 01:34N 54°18' W 005°21'65 1.4
2014-Aug-18 02:31N 53°21' W 006°13'0 0.0
2014-Aug-17 15:24N 53°21' W 006°13'0 0.0
2014-Aug-17 03:30N 53°21' W 006°13'55 4.6
2014-Aug-16 15:30N 52°28' W 005°49'9 9.5
2014-Aug-16 14:32N 52°18' W 005°48'250 6.4
2014-Aug-14 23:33N 50°36' E 000°18'6 6.5
2014-Aug-14 22:33N 50°37' E 000°27'8 8.0
2014-Aug-14 21:33N 50°41' E 000°39'1010.0
2014-Aug-14 20:33N 50°47' E 000°52'30 9.9
2014-Aug-14 17:33N 51°05' E 001°28'7 6.9
2014-Aug-14 16:33N 51°10' E 001°36'6 6.1
2014-Aug-14 15:33N 51°15' E 001°41'6 6.5
2014-Aug-14 14:33N 51°22' E 001°42'8 7.8
2014-Aug-14 13:33N 51°29' E 001°44'1010.2
2014-Aug-14 12:33N 51°40' E 001°44'1211.6
2014-Aug-14 11:33N 51°51' E 001°43'1212.3
2014-Aug-14 10:33N 52°03' E 001°45'1212.1
2014-Aug-14 09:33N 52°15' E 001°49'1211.9
2014-Aug-14 08:33N 52°27' E 001°52'1110.8
2014-Aug-14 07:33N 52°38' E 001°54'9 8.6
2014-Aug-14 06:33N 52°46' E 001°52'9 8.7
2014-Aug-14 05:33N 52°51' E 001°39'7 7.2
2014-Aug-14 04:33N 52°55' E 001°30'7 7.1
2014-Aug-14 03:33N 52°58' E 001°19'  
Track history (hours):
 
Tides and Currents Weather Stations Pressure Air Temp Water Temp Dewpoint Dewpoint Depression Visibility Wind Speed Wind Dir Waves Ship Positions

Burgtor

Last reported at 2014-Aug-23 02:08 UTC. Time now 2014-Aug-23 07:31 UTC.
Position N 55°39' W 004°60'.

Length 87 m; draft 4.7 m.

Type: Cargo ship. MMSI: 304665000.

Date/timePositionNaut miles runAvg speedWind from/ knotsBaromVisibWave heightAir tempDewpointWater temp
2014-Aug-23 02:08N 55°39' W 004°60'610.3
2014-Aug-23 01:33N 55°45' W 004°59'1010.2
2014-Aug-23 00:34N 55°55' W 004°56'8 7.6
2014-Aug-22 23:33N 55°57' W 004°42'9 9.2
2014-Aug-22 22:33N 55°54' W 004°26'4 3.7
2014-Aug-22 21:32N 55°52' W 004°21'0 0.0
2014-Aug-22 20:32N 55°52' W 004°21'0 0.0
2014-Aug-22 19:32N 55°52' W 004°21'0 0.0
2014-Aug-22 18:32N 55°52' W 004°21'0 0.0
2014-Aug-22 17:32N 55°52' W 004°21'0 0.0
2014-Aug-22 16:29N 55°52' W 004°21'0 0.0
2014-Aug-22 15:32N 55°52' W 004°21'0 0.0
2014-Aug-22 14:26N 55°52' W 004°21'0 0.0
2014-Aug-22 13:32N 55°52' W 004°21'0 0.0
2014-Aug-22 12:32N 55°52' W 004°21'0 0.0
2014-Aug-22 11:32N 55°52' W 004°21'0 0.0
2014-Aug-22 10:29N 55°52' W 004°21'0 0.0
2014-Aug-22 09:29N 55°52' W 004°21'0 0.0
2014-Aug-22 08:29N 55°52' W 004°21'0 0.0
2014-Aug-22 07:10N 55°52' W 004°21'0 0.0
2014-Aug-22 06:25N 55°52' W 004°21'0 0.0
2014-Aug-22 05:31N 55°52' W 004°21'0 0.0
2014-Aug-22 04:31N 55°52' W 004°21'0 0.0
2014-Aug-22 03:31N 55°52' W 004°21'0 0.0
2014-Aug-22 02:31N 55°52' W 004°21'0 0.0
2014-Aug-22 01:31N 55°52' W 004°21'0 0.0
2014-Aug-22 00:31N 55°52' W 004°21'0 0.0
2014-Aug-21 23:31N 55°52' W 004°21'0 0.0
2014-Aug-21 22:25N 55°52' W 004°21'0 0.0
2014-Aug-21 21:31N 55°52' W 004°21'0 0.0
2014-Aug-21 20:31N 55°52' W 004°21'0 0.0
2014-Aug-21 19:31N 55°52' W 004°21'0 0.0
2014-Aug-21 18:31N 55°52' W 004°21'0 0.0
2014-Aug-21 17:31N 55°52' W 004°21'0 0.0
2014-Aug-21 16:31N 55°52' W 004°21'0 0.0
2014-Aug-21 15:31N 55°52' W 004°21'0 0.0
2014-Aug-21 14:31N 55°52' W 004°21'0 0.0
2014-Aug-21 13:31N 55°52' W 004°21'0 0.0
2014-Aug-21 12:10N 55°52' W 004°21'0 0.0
2014-Aug-21 11:31N 55°52' W 004°21'0 0.0
2014-Aug-21 10:25N 55°52' W 004°21'0 0.0
2014-Aug-21 09:28N 55°52' W 004°21'0 0.0
2014-Aug-21 08:31N 55°52' W 004°21'0 0.0
2014-Aug-21 07:31N 55°52' W 004°21'0 0.0
2014-Aug-21 06:31N 55°52' W 004°21'0 0.0
2014-Aug-21 05:28N 55°52' W 004°21'0 0.0
2014-Aug-21 04:22N 55°52' W 004°21'0 0.0
2014-Aug-21 03:28N 55°52' W 004°21'0 0.0
2014-Aug-21 02:28N 55°52' W 004°21'0 0.0
2014-Aug-21 01:28N 55°52' W 004°21'0 0.0
2014-Aug-21 00:28N 55°52' W 004°21'0 0.0
2014-Aug-20 23:22N 55°52' W 004°21'0 0.0
2014-Aug-20 22:28N 55°52' W 004°21'0 0.0
2014-Aug-20 21:31N 55°52' W 004°21'0 0.0
2014-Aug-20 20:34N 55°52' W 004°21'0 0.0
2014-Aug-20 19:33N 55°52' W 004°21'5 4.9
2014-Aug-20 18:34N 55°55' W 004°28'1111.0
2014-Aug-20 17:34N 55°58' W 004°47'7 7.3
2014-Aug-20 16:34N 55°53' W 004°56'6 5.8
2014-Aug-20 15:33N 55°47' W 004°58'6 5.8
2014-Aug-20 14:30N 55°41' W 004°59'7 7.0
2014-Aug-20 13:30N 55°34' W 005°00'34 6.9
2014-Aug-20 08:33N 55°01' W 005°15'7 7.1
2014-Aug-20 07:33N 54°54' W 005°16'7 6.7
2014-Aug-20 06:34N 54°47' W 005°16'6 5.8
2014-Aug-20 05:34N 54°41' W 005°17'6 5.6
2014-Aug-20 04:34N 54°36' W 005°17'6 5.8
2014-Aug-20 03:34N 54°30' W 005°18'6 6.1
2014-Aug-20 02:34N 54°24' W 005°18'7 6.6
2014-Aug-20 01:34N 54°18' W 005°21'65 1.4
2014-Aug-18 02:31N 53°21' W 006°13'0 0.0
2014-Aug-17 15:24N 53°21' W 006°13'0 0.0
2014-Aug-17 03:30N 53°21' W 006°13'55 4.6
2014-Aug-16 15:30N 52°28' W 005°49'9 9.5
2014-Aug-16 14:32N 52°18' W 005°48'250 6.4
2014-Aug-14 23:33N 50°36' E 000°18'6 6.5
2014-Aug-14 22:33N 50°37' E 000°27'8 8.0
2014-Aug-14 21:33N 50°41' E 000°39'1010.0
2014-Aug-14 20:33N 50°47' E 000°52'30 9.9
2014-Aug-14 17:33N 51°05' E 001°28'7 6.9
2014-Aug-14 16:33N 51°10' E 001°36'6 6.1
2014-Aug-14 15:33N 51°15' E 001°41'6 6.5
2014-Aug-14 14:33N 51°22' E 001°42'8 7.8
2014-Aug-14 13:33N 51°29' E 001°44'1010.2
2014-Aug-14 12:33N 51°40' E 001°44'1211.6
2014-Aug-14 11:33N 51°51' E 001°43'1212.3
2014-Aug-14 10:33N 52°03' E 001°45'1212.1
2014-Aug-14 09:33N 52°15' E 001°49'1211.9
2014-Aug-14 08:33N 52°27' E 001°52'1110.8
2014-Aug-14 07:33N 52°38' E 001°54'9 8.6
2014-Aug-14 06:33N 52°46' E 001°52'9 8.7
2014-Aug-14 05:33N 52°51' E 001°39'7 7.2
2014-Aug-14 04:33N 52°55' E 001°30'7 7.1
2014-Aug-14 03:33N 52°58' E 001°19'  

Dump ship's entire track history